createdAt,value
2023-04-02T00:00:16.362Z,11.89
2023-04-02T00:03:22.508Z,11.83
2023-04-02T00:06:40.539Z,12.00
2023-04-02T00:09:44.478Z,11.89
2023-04-02T00:13:02.408Z,11.80
2023-04-02T00:16:10.120Z,12.01
2023-04-02T00:19:21.046Z,11.80
2023-04-02T00:22:28.486Z,11.89
2023-04-02T00:25:42.953Z,11.66
2023-04-02T00:28:46.561Z,11.87
2023-04-02T00:31:53.966Z,11.86
2023-04-02T00:34:58.394Z,11.86
2023-04-02T00:38:03.438Z,12.15
2023-04-02T00:41:09.294Z,12.07
2023-04-02T00:44:14.837Z,11.92
2023-04-02T00:47:24.629Z,11.98
2023-04-02T00:50:32.279Z,12.07
2023-04-02T00:53:36.977Z,11.86
2023-04-02T00:56:43.905Z,11.49
2023-04-02T00:59:55.369Z,11.46
2023-04-02T01:03:36.557Z,11.55
2023-04-02T01:06:41.038Z,11.71
2023-04-02T01:10:00.137Z,11.87
2023-04-02T01:13:15.834Z,11.87
2023-04-02T01:16:29.874Z,11.54
2023-04-02T01:20:08.499Z,11.65
2023-04-02T01:23:19.684Z,11.78
2023-04-02T01:26:36.329Z,11.42
2023-04-02T01:29:45.613Z,11.63
2023-04-02T01:32:51.280Z,11.43
2023-04-02T01:36:06.011Z,11.20
2023-04-02T01:39:21.550Z,11.81
2023-04-02T01:42:30.031Z,11.99
2023-04-02T01:45:36.594Z,11.69
2023-04-02T01:48:41.450Z,11.77
2023-04-02T01:51:48.423Z,11.85
2023-04-02T01:54:54.422Z,11.80
2023-04-02T01:57:59.785Z,11.72
2023-04-02T02:01:07.414Z,11.81
2023-04-02T02:04:14.677Z,11.64
2023-04-02T02:07:21.270Z,11.69
2023-04-02T02:10:31.420Z,11.83
2023-04-02T02:13:35.055Z,11.70
2023-04-02T02:16:43.403Z,11.60
2023-04-02T02:19:50.523Z,11.56
2023-04-02T02:22:54.931Z,11.65
2023-04-02T02:25:59.848Z,11.46
2023-04-02T02:29:08.310Z,11.36
2023-04-02T02:32:15.269Z,11.57
2023-04-02T02:35:25.066Z,11.58
2023-04-02T02:38:54.672Z,11.27
2023-04-02T02:42:10.850Z,11.86
2023-04-02T02:45:19.320Z,11.97
2023-04-02T02:48:29.873Z,12.00
2023-04-02T02:51:43.707Z,12.08
2023-04-02T02:54:54.043Z,11.98
2023-04-02T02:58:04.666Z,12.05
2023-04-02T03:01:14.360Z,11.85
2023-04-02T03:04:25.759Z,11.89
2023-04-02T03:07:33.469Z,11.93
2023-04-02T03:10:44.881Z,12.11
2023-04-02T03:13:51.204Z,12.22
2023-04-02T03:17:02.309Z,12.29
2023-04-02T03:20:16.278Z,12.32
2023-04-02T03:23:25.976Z,12.31
2023-04-02T03:26:36.045Z,12.38
2023-04-02T03:29:44.782Z,12.38
2023-04-02T03:32:54.710Z,12.15
2023-04-02T03:36:04.642Z,12.01
2023-04-02T03:39:16.550Z,11.66
2023-04-02T03:42:25.316Z,11.69
2023-04-02T03:45:35.648Z,11.90
2023-04-02T03:48:43.452Z,11.80
2023-04-02T03:51:54.133Z,11.68
2023-04-02T03:55:00.710Z,11.68
2023-04-02T03:58:12.745Z,11.89
2023-04-02T04:01:23.360Z,12.02
2023-04-02T04:04:30.250Z,12.03
2023-04-02T04:07:39.990Z,12.17
2023-04-02T04:10:45.166Z,12.21
2023-04-02T04:13:55.334Z,11.94
2023-04-02T04:17:05.860Z,11.86
2023-04-02T04:20:22.122Z,11.81
2023-04-02T04:23:32.307Z,12.02
2023-04-02T04:26:49.779Z,11.92
2023-04-02T04:30:03.661Z,12.02
2023-04-02T04:33:16.662Z,11.89
2023-04-02T04:36:28.958Z,11.99
2023-04-02T04:39:46.948Z,11.97
2023-04-02T04:42:56.510Z,11.76
2023-04-02T04:46:04.860Z,11.59
2023-04-02T04:49:15.684Z,11.78
2023-04-02T04:52:23.436Z,11.68
2023-04-02T04:55:35.687Z,11.97
2023-04-02T04:58:47.327Z,11.75
2023-04-02T05:01:57.486Z,12.12
2023-04-02T05:05:03.741Z,12.28
2023-04-02T05:08:15.659Z,12.41
2023-04-02T05:11:28.095Z,12.34
2023-04-02T05:14:37.402Z,12.39
2023-04-02T05:17:47.996Z,12.44
2023-04-02T05:20:57.996Z,12.34
2023-04-02T05:24:12.077Z,12.54
2023-04-02T05:27:28.768Z,12.62
2023-04-02T05:30:53.921Z,12.65
2023-04-02T05:34:00.395Z,12.48
2023-04-02T05:37:06.962Z,12.60
2023-04-02T05:40:20.826Z,12.80
2023-04-02T05:43:30.068Z,12.87
2023-04-02T05:46:39.423Z,12.92
2023-04-02T05:49:47.501Z,13.22
2023-04-02T05:52:57.935Z,13.33
2023-04-02T05:56:07.625Z,13.37
2023-04-02T05:59:20.877Z,13.55
2023-04-02T06:02:32.126Z,13.42
2023-04-02T06:05:41.203Z,13.91
2023-04-02T06:08:51.705Z,14.13
2023-04-02T06:12:02.043Z,14.25
2023-04-02T06:15:14.270Z,14.23
2023-04-02T06:18:22.203Z,14.36
2023-04-02T06:21:28.693Z,14.10
2023-04-02T06:24:33.632Z,14.35
2023-04-02T06:27:41.585Z,14.37
2023-04-02T06:30:50.603Z,14.31
2023-04-02T06:33:56.492Z,14.31
2023-04-02T06:37:06.224Z,14.46
2023-04-02T06:40:35.220Z,14.65
2023-04-02T06:43:49.017Z,14.66
2023-04-02T06:47:18.819Z,14.91
2023-04-02T06:50:31.766Z,15.14
2023-04-02T06:53:40.549Z,15.23
2023-04-02T06:56:51.038Z,15.07
2023-04-02T07:00:03.726Z,15.05
2023-04-02T07:03:15.041Z,15.21
2023-04-02T07:06:21.260Z,15.20
2023-04-02T07:09:27.315Z,15.18
2023-04-02T07:12:34.471Z,15.16
2023-04-02T07:15:38.381Z,15.29
2023-04-02T07:18:44.642Z,15.27
2023-04-02T07:21:48.964Z,15.21
2023-04-02T07:24:53.723Z,15.22
2023-04-02T07:27:58.304Z,15.21
2023-04-02T07:31:02.285Z,15.41
2023-04-02T07:34:08.720Z,15.69
2023-04-02T07:37:15.820Z,15.76
2023-04-02T07:40:23.272Z,16.11
2023-04-02T07:43:27.000Z,16.26
2023-04-02T07:46:30.807Z,16.47
2023-04-02T07:49:36.062Z,16.79
2023-04-02T07:52:42.422Z,17.04
2023-04-02T07:55:46.160Z,17.51
2023-04-02T07:59:14.737Z,17.68
2023-04-02T08:02:21.707Z,17.84
2023-04-02T08:05:28.041Z,17.67
2023-04-02T08:08:31.790Z,17.26
2023-04-02T08:11:35.543Z,17.69
2023-04-02T08:14:39.227Z,17.87
2023-04-02T08:17:43.416Z,17.76
2023-04-02T08:20:48.704Z,17.78
2023-04-02T08:23:52.383Z,18.05
2023-04-02T08:26:56.084Z,18.20
2023-04-02T08:29:59.738Z,18.52
2023-04-02T08:33:03.782Z,18.62
2023-04-02T08:36:09.357Z,19.35
2023-04-02T08:39:13.630Z,18.95
2023-04-02T08:42:30.836Z,19.71
2023-04-02T08:45:47.920Z,20.08
2023-04-02T08:48:57.155Z,19.81
2023-04-02T08:52:02.918Z,20.19
2023-04-02T08:55:24.045Z,20.63
2023-04-02T08:58:39.712Z,20.34
2023-04-02T09:01:52.033Z,20.68
2023-04-02T09:04:57.543Z,20.65
2023-04-02T09:08:05.398Z,19.99
2023-04-02T09:11:14.173Z,20.59
2023-04-02T09:14:20.424Z,20.58
2023-04-02T09:17:25.917Z,20.84
2023-04-02T09:20:30.084Z,21.03
2023-04-02T09:23:35.414Z,21.49
2023-04-02T09:26:39.197Z,21.60
2023-04-02T09:29:46.065Z,21.64
2023-04-02T09:32:51.375Z,21.54
2023-04-02T09:35:59.377Z,21.87
2023-04-02T09:39:08.548Z,22.05
2023-04-02T09:42:32.123Z,22.63
2023-04-02T09:45:36.562Z,22.41
2023-04-02T09:48:45.070Z,22.80
2023-04-02T09:52:09.159Z,22.79
2023-04-02T09:55:23.226Z,22.48
2023-04-02T09:58:27.055Z,22.44
2023-04-02T10:01:33.403Z,22.46
2023-04-02T10:04:44.671Z,22.61
2023-04-02T10:07:49.987Z,22.25
2023-04-02T10:10:58.434Z,22.38
2023-04-02T10:14:05.652Z,22.81
2023-04-02T10:17:14.655Z,23.04
2023-04-02T10:20:23.443Z,23.12
2023-04-02T10:23:31.233Z,22.58
2023-04-02T10:26:49.926Z,23.06
2023-04-02T10:30:08.313Z,23.38
2023-04-02T10:33:20.375Z,23.43
2023-04-02T10:36:36.230Z,23.50
2023-04-02T10:39:42.676Z,23.07
2023-04-02T10:42:58.430Z,22.96
2023-04-02T10:46:09.199Z,23.15
2023-04-02T10:49:24.424Z,23.26
2023-04-02T10:52:32.277Z,23.57
2023-04-02T10:55:43.470Z,23.71
2023-04-02T10:58:57.513Z,23.61
2023-04-02T11:02:05.759Z,23.79
2023-04-02T11:05:18.646Z,23.81
2023-04-02T11:08:27.380Z,23.63
2023-04-02T11:11:36.897Z,23.62
2023-04-02T11:14:42.224Z,23.43
2023-04-02T11:17:46.814Z,23.91
2023-04-02T11:21:02.326Z,23.98
2023-04-02T11:24:07.335Z,24.18
2023-04-02T11:27:22.805Z,24.02
2023-04-02T11:30:32.065Z,23.87
2023-04-02T11:33:46.120Z,24.09
2023-04-02T11:37:09.604Z,24.19
2023-04-02T11:40:45.028Z,24.09
2023-04-02T11:43:51.598Z,24.09
2023-04-02T11:47:16.586Z,24.17
2023-04-02T11:50:31.992Z,23.89
2023-04-02T11:53:37.246Z,23.71
2023-04-02T11:56:49.276Z,23.64
2023-04-02T12:00:11.556Z,23.51
2023-04-02T12:03:43.086Z,24.01
2023-04-02T12:07:00.159Z,24.04
2023-04-02T12:10:07.208Z,24.20
2023-04-02T12:13:20.101Z,24.30
2023-04-02T12:16:29.510Z,24.38
2023-04-02T12:19:35.189Z,24.13
2023-04-02T12:22:42.582Z,24.04
2023-04-02T12:25:52.932Z,24.08
2023-04-02T12:28:56.882Z,24.40
2023-04-02T12:32:01.225Z,24.52
2023-04-02T12:35:08.531Z,24.41
2023-04-02T12:38:22.043Z,24.58
2023-04-02T12:41:30.524Z,24.71
2023-04-02T12:44:34.418Z,24.20
2023-04-02T12:47:38.215Z,24.55
2023-04-02T12:50:43.682Z,24.52
2023-04-02T12:53:52.031Z,24.35
2023-04-02T12:56:57.708Z,24.20
2023-04-02T13:00:06.454Z,24.10
2023-04-02T13:03:21.945Z,24.12
2023-04-02T13:06:27.928Z,24.42
2023-04-02T13:09:36.178Z,24.35
2023-04-02T13:12:42.027Z,24.64
2023-04-02T13:15:46.499Z,24.50
2023-04-02T13:18:51.768Z,23.85
2023-04-02T13:21:59.149Z,24.09
2023-04-02T13:25:02.746Z,24.35
2023-04-02T13:28:06.587Z,24.42
2023-04-02T13:31:16.567Z,24.38
2023-04-02T13:34:20.327Z,24.50
2023-04-02T13:37:25.577Z,23.71
2023-04-02T13:40:29.356Z,24.27
2023-04-02T13:43:33.996Z,24.11
2023-04-02T13:46:37.785Z,24.31
2023-04-02T13:49:41.615Z,24.75
2023-04-02T13:52:47.180Z,24.91
2023-04-02T13:55:52.369Z,24.71
2023-04-02T13:58:56.139Z,24.59
2023-04-02T14:02:04.310Z,24.61
2023-04-02T14:05:24.680Z,24.81
2023-04-02T14:08:39.865Z,24.83
2023-04-02T14:11:52.594Z,24.89
2023-04-02T14:15:18.443Z,24.28
2023-04-02T14:18:39.737Z,23.55
2023-04-02T14:21:54.686Z,23.10
2023-04-02T14:25:08.508Z,22.86
2023-04-02T14:28:23.889Z,23.01
2023-04-02T14:31:35.427Z,23.13
2023-04-02T14:34:48.537Z,23.46
2023-04-02T14:38:03.746Z,23.07
2023-04-02T14:41:15.008Z,22.96
2023-04-02T14:44:23.515Z,23.01
2023-04-02T14:47:33.143Z,23.31
2023-04-02T14:50:40.873Z,23.43
2023-04-02T14:53:53.181Z,23.25
2023-04-02T14:57:02.172Z,23.17
2023-04-02T15:00:08.575Z,23.57
2023-04-02T15:03:17.971Z,23.81
2023-04-02T15:06:26.143Z,24.07
2023-04-02T15:09:34.956Z,23.87
2023-04-02T15:12:44.562Z,24.04
2023-04-02T15:15:54.520Z,23.89
2023-04-02T15:19:00.096Z,23.38
2023-04-02T15:22:16.863Z,23.00
2023-04-02T15:25:30.394Z,22.54
2023-04-02T15:28:43.472Z,22.54
2023-04-02T15:31:48.196Z,22.63
2023-04-02T15:35:20.525Z,22.62
2023-04-02T15:38:27.543Z,22.86
2023-04-02T15:41:38.732Z,22.85
2023-04-02T15:44:54.611Z,22.77
2023-04-02T15:48:22.016Z,22.37
2023-04-02T15:51:48.383Z,22.67
2023-04-02T15:55:03.736Z,22.73
2023-04-02T15:58:41.316Z,22.61
2023-04-02T16:01:55.482Z,22.44
2023-04-02T16:05:05.401Z,22.08
2023-04-02T16:08:28.437Z,21.89
2023-04-02T16:11:33.835Z,21.82
2023-04-02T16:14:39.248Z,21.76
2023-04-02T16:17:51.021Z,21.50
2023-04-02T16:20:57.414Z,21.46
2023-04-02T16:24:01.945Z,21.44
2023-04-02T16:27:18.081Z,21.29
2023-04-02T16:30:41.647Z,21.19
2023-04-02T16:33:57.055Z,21.14
2023-04-02T16:37:07.045Z,21.10
2023-04-02T16:40:26.417Z,21.14
2023-04-02T16:43:40.034Z,21.04
2023-04-02T16:47:00.156Z,20.92
2023-04-02T16:50:18.170Z,20.90
2023-04-02T16:53:32.692Z,20.60
2023-04-02T16:56:47.973Z,20.47
2023-04-02T17:00:00.166Z,20.57
2023-04-02T17:03:17.695Z,20.43
2023-04-02T17:06:33.578Z,20.38
2023-04-02T17:09:43.867Z,20.39
2023-04-02T17:12:49.518Z,20.24
2023-04-02T17:16:04.084Z,20.24
2023-04-02T17:19:12.585Z,20.13
2023-04-02T17:22:21.670Z,20.00
2023-04-02T17:25:29.332Z,19.92
2023-04-02T17:28:37.140Z,19.91
2023-04-02T17:31:42.277Z,19.66
2023-04-02T17:34:46.106Z,19.53
2023-04-02T17:37:59.227Z,19.58
2023-04-02T17:41:11.435Z,19.54
2023-04-02T17:44:42.368Z,19.43
2023-04-02T17:47:55.014Z,19.35
2023-04-02T17:51:12.910Z,19.34
2023-04-02T17:54:31.079Z,19.29
2023-04-02T17:57:49.345Z,19.01
2023-04-02T18:01:06.644Z,19.15
2023-04-02T18:04:20.727Z,19.04
2023-04-02T18:07:37.197Z,18.82
2023-04-02T18:10:51.877Z,18.82
2023-04-02T18:14:01.077Z,18.49
2023-04-02T18:17:14.397Z,18.39
2023-04-02T18:20:27.782Z,18.45
2023-04-02T18:23:45.340Z,18.55
2023-04-02T18:26:58.276Z,18.49
2023-04-02T18:30:12.998Z,18.62
2023-04-02T18:33:35.406Z,18.68
2023-04-02T18:36:52.606Z,18.42
2023-04-02T18:40:20.312Z,18.57
2023-04-02T18:43:37.642Z,18.47
2023-04-02T18:46:51.230Z,18.37
2023-04-02T18:50:12.864Z,18.30
2023-04-02T18:53:20.455Z,18.33
2023-04-02T18:56:25.700Z,18.26
2023-04-02T18:59:43.070Z,18.08
2023-04-02T19:02:51.948Z,18.13
2023-04-02T19:06:03.239Z,18.13
2023-04-02T19:09:15.372Z,18.01
2023-04-02T19:12:20.916Z,18.02
2023-04-02T19:15:37.424Z,18.14
2023-04-02T19:18:50.322Z,18.21
2023-04-02T19:22:16.945Z,17.89
2023-04-02T19:25:33.027Z,18.08
2023-04-02T19:28:45.823Z,17.81
2023-04-02T19:31:59.881Z,18.01
2023-04-02T19:35:12.924Z,17.98
2023-04-02T19:38:28.722Z,17.82
2023-04-02T19:41:40.813Z,17.81
2023-04-02T19:44:48.292Z,17.90
2023-04-02T19:47:53.576Z,17.80
2023-04-02T19:50:57.392Z,17.92
2023-04-02T19:54:01.259Z,17.84
2023-04-02T19:57:05.485Z,17.80
2023-04-02T20:00:13.151Z,17.45
2023-04-02T20:03:18.254Z,17.46
2023-04-02T20:06:22.775Z,17.42
2023-04-02T20:09:26.552Z,17.56
2023-04-02T20:12:30.304Z,17.58
2023-04-02T20:15:34.203Z,17.74
2023-04-02T20:18:39.731Z,17.53
2023-04-02T20:21:43.597Z,17.47
2023-04-02T20:24:47.434Z,17.62
2023-04-02T20:27:51.321Z,17.74
2023-04-02T20:30:57.090Z,17.63
2023-04-02T20:34:04.154Z,17.55
2023-04-02T20:37:08.141Z,17.52
2023-04-02T20:40:12.272Z,17.64
2023-04-02T20:43:15.959Z,17.54
2023-04-02T20:46:20.249Z,17.69
2023-04-02T20:49:25.743Z,17.74
2023-04-02T20:52:30.560Z,17.75
2023-04-02T20:55:34.279Z,17.74
2023-04-02T20:58:39.391Z,17.53
2023-04-02T21:01:43.170Z,17.65
2023-04-02T21:04:48.521Z,17.78
2023-04-02T21:07:53.706Z,17.63
2023-04-02T21:11:04.191Z,17.58
2023-04-02T21:14:08.124Z,17.72
2023-04-02T21:17:12.318Z,17.64
2023-04-02T21:20:17.638Z,17.36
2023-04-02T21:23:21.428Z,17.50
2023-04-02T21:26:25.225Z,17.43
2023-04-02T21:29:29.025Z,17.45
2023-04-02T21:32:33.247Z,17.61
2023-04-02T21:35:38.607Z,17.63
2023-04-02T21:38:43.534Z,17.60
2023-04-02T21:41:50.351Z,17.49
2023-04-02T21:44:54.151Z,17.30
2023-04-02T21:47:57.919Z,17.44
2023-04-02T21:51:11.871Z,17.33
2023-04-02T21:54:15.822Z,17.29
2023-04-02T21:57:19.595Z,17.33
2023-04-02T22:00:23.514Z,17.35
2023-04-02T22:03:31.574Z,17.31
2023-04-02T22:06:40.822Z,17.02
2023-04-02T22:09:44.484Z,17.07
2023-04-02T22:12:48.375Z,16.99
2023-04-02T22:15:52.108Z,16.96
2023-04-02T22:18:57.615Z,16.93
2023-04-02T22:22:02.717Z,16.86
2023-04-02T22:25:07.557Z,16.92
2023-04-02T22:28:11.192Z,16.85
2023-04-02T22:31:17.739Z,16.48
2023-04-02T22:34:21.511Z,16.66
2023-04-02T22:37:26.731Z,16.44
2023-04-02T22:40:31.124Z,16.48
2023-04-02T22:43:35.162Z,16.36
2023-04-02T22:46:38.903Z,16.38
2023-04-02T22:49:42.640Z,16.31
2023-04-02T22:52:47.850Z,16.25
2023-04-02T22:55:52.518Z,16.39
2023-04-02T22:58:56.266Z,16.31
2023-04-02T23:02:00.064Z,15.87
2023-04-02T23:05:04.286Z,15.99
2023-04-02T23:08:09.828Z,15.98
2023-04-02T23:11:15.645Z,15.96
2023-04-02T23:14:19.373Z,16.18
2023-04-02T23:17:23.039Z,16.34
2023-04-02T23:20:26.784Z,16.30
2023-04-02T23:23:32.893Z,16.27
2023-04-02T23:26:36.696Z,16.32
2023-04-02T23:29:40.563Z,15.90
2023-04-02T23:32:44.346Z,16.23
2023-04-02T23:35:48.038Z,16.21
2023-04-02T23:38:55.791Z,15.99
2023-04-02T23:42:00.954Z,16.09
2023-04-02T23:45:04.987Z,15.65
2023-04-02T23:48:08.696Z,15.49
2023-04-02T23:51:12.454Z,15.64
2023-04-02T23:54:17.834Z,15.74
2023-04-02T23:57:21.598Z,15.60
